sensor_id;sensor_type;location;lat;lon;timestamp;pressure;altitude;pressure_sealevel;temperature;humidity
73952;BME280;62304;47.662;18.324;2023-04-30T00:02:18;100235.88;;;12.08;79.43
73952;BME280;62304;47.662;18.324;2023-04-30T00:05:21;100234.34;;;12.14;79.11
73952;BME280;62304;47.662;18.324;2023-04-30T00:08:23;100237.53;;;12.16;79.59
73952;BME280;62304;47.662;18.324;2023-04-30T00:11:27;100229.88;;;12.03;80.21
73952;BME280;62304;47.662;18.324;2023-04-30T00:14:29;100235.03;;;12.04;79.67
73952;BME280;62304;47.662;18.324;2023-04-30T00:17:32;100236.16;;;12.00;80.09
73952;BME280;62304;47.662;18.324;2023-04-30T00:20:35;100242.12;;;11.98;79.58
73952;BME280;62304;47.662;18.324;2023-04-30T00:23:38;100236.87;;;11.90;79.92
73952;BME280;62304;47.662;18.324;2023-04-30T00:26:41;100240.03;;;11.88;80.34
73952;BME280;62304;47.662;18.324;2023-04-30T00:29:45;100240.81;;;11.89;80.38
73952;BME280;62304;47.662;18.324;2023-04-30T00:32:48;100237.59;;;11.83;80.40
73952;BME280;62304;47.662;18.324;2023-04-30T00:35:51;100222.25;;;11.96;80.55
73952;BME280;62304;47.662;18.324;2023-04-30T00:38:54;100218.44;;;12.15;79.76
73952;BME280;62304;47.662;18.324;2023-04-30T00:41:57;100226.44;;;12.20;79.91
73952;BME280;62304;47.662;18.324;2023-04-30T00:45:00;100218.50;;;12.22;79.50
73952;BME280;62304;47.662;18.324;2023-04-30T00:48:03;100214.66;;;11.90;81.46
73952;BME280;62304;47.662;18.324;2023-04-30T00:51:06;100215.56;;;12.01;80.52
73952;BME280;62304;47.662;18.324;2023-04-30T00:54:10;100226.28;;;12.02;81.55
73952;BME280;62304;47.662;18.324;2023-04-30T00:57:13;100228.94;;;12.35;80.12
73952;BME280;62304;47.662;18.324;2023-04-30T01:00:17;100221.91;;;12.45;78.99
73952;BME280;62304;47.662;18.324;2023-04-30T01:03:20;100228.50;;;12.26;79.50
73952;BME280;62304;47.662;18.324;2023-04-30T01:06:25;100231.16;;;12.16;80.03
73952;BME280;62304;47.662;18.324;2023-04-30T01:09:29;100235.16;;;12.18;80.48
73952;BME280;62304;47.662;18.324;2023-04-30T01:12:54;100231.91;;;12.09;80.45
73952;BME280;62304;47.662;18.324;2023-04-30T01:16:20;100232.25;;;12.04;80.70
73952;BME280;62304;47.662;18.324;2023-04-30T01:19:43;100236.06;;;11.89;81.19
73952;BME280;62304;47.662;18.324;2023-04-30T01:23:05;100245.88;;;11.76;81.45
73952;BME280;62304;47.662;18.324;2023-04-30T01:26:33;100250.34;;;11.55;83.39
73952;BME280;62304;47.662;18.324;2023-04-30T01:29:41;100259.22;;;11.64;83.56
73952;BME280;62304;47.662;18.324;2023-04-30T01:32:47;100263.31;;;11.77;83.44
73952;BME280;62304;47.662;18.324;2023-04-30T01:42:44;100259.56;;;11.95;82.62
73952;BME280;62304;47.662;18.324;2023-04-30T01:52:49;100271.37;;;11.89;81.83
73952;BME280;62304;47.662;18.324;2023-04-30T01:55:58;100268.06;;;11.73;83.07
73952;BME280;62304;47.662;18.324;2023-04-30T01:59:04;100263.28;;;11.73;83.92
73952;BME280;62304;47.662;18.324;2023-04-30T02:02:07;100264.53;;;11.79;83.28
73952;BME280;62304;47.662;18.324;2023-04-30T02:05:10;100266.19;;;11.84;83.55
73952;BME280;62304;47.662;18.324;2023-04-30T02:08:13;100260.81;;;12.01;83.21
73952;BME280;62304;47.662;18.324;2023-04-30T02:11:17;100263.22;;;12.03;82.80
73952;BME280;62304;47.662;18.324;2023-04-30T02:14:21;100260.50;;;12.10;82.61
73952;BME280;62304;47.662;18.324;2023-04-30T02:17:27;100267.72;;;12.14;82.36
73952;BME280;62304;47.662;18.324;2023-04-30T02:20:32;100269.75;;;11.84;83.55
73952;BME280;62304;47.662;18.324;2023-04-30T02:23:37;100275.38;;;11.91;83.91
73952;BME280;62304;47.662;18.324;2023-04-30T02:26:43;100273.66;;;11.76;84.42
73952;BME280;62304;47.662;18.324;2023-04-30T02:29:48;100274.25;;;11.92;84.00
73952;BME280;62304;47.662;18.324;2023-04-30T02:32:51;100273.06;;;11.93;83.93
73952;BME280;62304;47.662;18.324;2023-04-30T02:35:54;100274.81;;;12.08;83.18
73952;BME280;62304;47.662;18.324;2023-04-30T02:38:59;100270.87;;;12.13;82.97
73952;BME280;62304;47.662;18.324;2023-04-30T02:42:02;100279.66;;;12.18;82.71
73952;BME280;62304;47.662;18.324;2023-04-30T02:45:06;100281.97;;;12.09;82.40
73952;BME280;62304;47.662;18.324;2023-04-30T02:48:09;100273.91;;;11.97;83.37
73952;BME280;62304;47.662;18.324;2023-04-30T02:51:12;100280.13;;;11.87;83.67
73952;BME280;62304;47.662;18.324;2023-04-30T02:54:15;100284.37;;;11.78;83.67
73952;BME280;62304;47.662;18.324;2023-04-30T02:57:18;100292.62;;;11.71;83.69
73952;BME280;62304;47.662;18.324;2023-04-30T03:00:21;100294.50;;;11.63;83.80
73952;BME280;62304;47.662;18.324;2023-04-30T03:04:49;100288.16;;;12.36;82.71
73952;BME280;62304;47.662;18.324;2023-04-30T03:07:52;100288.16;;;12.36;82.71
73952;BME280;62304;47.662;18.324;2023-04-30T03:10:55;100283.72;;;11.58;84.78
73952;BME280;62304;47.662;18.324;2023-04-30T03:13:58;100298.13;;;11.38;85.87
73952;BME280;62304;47.662;18.324;2023-04-30T03:17:01;100295.19;;;11.24;87.47
73952;BME280;62304;47.662;18.324;2023-04-30T03:20:06;100289.91;;;11.15;86.80
73952;BME280;62304;47.662;18.324;2023-04-30T03:23:08;100298.41;;;11.03;87.75
73952;BME280;62304;47.662;18.324;2023-04-30T03:26:11;100294.28;;;10.90;89.29
73952;BME280;62304;47.662;18.324;2023-04-30T03:29:14;100309.69;;;10.88;88.25
73952;BME280;62304;47.662;18.324;2023-04-30T03:32:17;100309.59;;;10.81;88.97
73952;BME280;62304;47.662;18.324;2023-04-30T03:35:20;100320.12;;;10.72;88.93
73952;BME280;62304;47.662;18.324;2023-04-30T03:38:23;100317.41;;;10.49;89.28
73952;BME280;62304;47.662;18.324;2023-04-30T03:41:27;100328.53;;;10.30;90.04
73952;BME280;62304;47.662;18.324;2023-04-30T03:44:30;100324.75;;;10.19;90.75
73952;BME280;62304;47.662;18.324;2023-04-30T03:47:34;100323.88;;;10.15;91.95
73952;BME280;62304;47.662;18.324;2023-04-30T03:50:38;100335.59;;;10.05;91.85
73952;BME280;62304;47.662;18.324;2023-04-30T03:53:41;100339.50;;;10.04;93.02
73952;BME280;62304;47.662;18.324;2023-04-30T03:56:44;100333.66;;;10.09;93.44
73952;BME280;62304;47.662;18.324;2023-04-30T03:59:47;100343.41;;;10.03;93.44
73952;BME280;62304;47.662;18.324;2023-04-30T04:02:50;100344.59;;;10.02;93.59
73952;BME280;62304;47.662;18.324;2023-04-30T04:05:53;100346.94;;;10.00;93.68
73952;BME280;62304;47.662;18.324;2023-04-30T04:08:58;100345.94;;;9.89;93.28
73952;BME280;62304;47.662;18.324;2023-04-30T04:12:02;100351.31;;;9.82;93.71
73952;BME280;62304;47.662;18.324;2023-04-30T04:15:05;100356.63;;;9.72;93.74
73952;BME280;62304;47.662;18.324;2023-04-30T04:18:09;100357.72;;;9.67;94.19
73952;BME280;62304;47.662;18.324;2023-04-30T04:21:12;100371.59;;;9.67;94.75
73952;BME280;62304;47.662;18.324;2023-04-30T04:24:15;100372.28;;;9.64;94.83
73952;BME280;62304;47.662;18.324;2023-04-30T04:27:18;100374.09;;;9.57;94.44
73952;BME280;62304;47.662;18.324;2023-04-30T04:30:22;100382.94;;;9.62;95.71
73952;BME280;62304;47.662;18.324;2023-04-30T04:33:25;100380.59;;;9.64;95.63
73952;BME280;62304;47.662;18.324;2023-04-30T04:36:28;100381.78;;;9.63;95.33
73952;BME280;62304;47.662;18.324;2023-04-30T04:39:31;100386.41;;;9.59;95.22
73952;BME280;62304;47.662;18.324;2023-04-30T04:42:34;100390.91;;;9.64;95.85
73952;BME280;62304;47.662;18.324;2023-04-30T04:45:37;100389.78;;;9.68;96.17
73952;BME280;62304;47.662;18.324;2023-04-30T04:48:42;100389.22;;;9.78;95.99
73952;BME280;62304;47.662;18.324;2023-04-30T04:51:46;100383.47;;;9.87;95.77
73952;BME280;62304;47.662;18.324;2023-04-30T04:54:49;100390.63;;;10.07;95.39
73952;BME280;62304;47.662;18.324;2023-04-30T04:57:52;100395.81;;;10.27;94.36
73952;BME280;62304;47.662;18.324;2023-04-30T05:00:55;100400.94;;;10.48;93.74
73952;BME280;62304;47.662;18.324;2023-04-30T05:03:58;100397.00;;;10.49;93.47
73952;BME280;62304;47.662;18.324;2023-04-30T05:07:02;100397.88;;;10.53;93.50
73952;BME280;62304;47.662;18.324;2023-04-30T05:10:06;100392.69;;;10.51;93.13
73952;BME280;62304;47.662;18.324;2023-04-30T05:13:10;100401.88;;;10.55;93.70
73952;BME280;62304;47.662;18.324;2023-04-30T05:16:13;100403.47;;;10.56;93.08
73952;BME280;62304;47.662;18.324;2023-04-30T05:19:16;100408.38;;;10.63;93.05
73952;BME280;62304;47.662;18.324;2023-04-30T05:22:19;100412.53;;;10.76;92.86
73952;BME280;62304;47.662;18.324;2023-04-30T05:25:22;100405.31;;;10.94;92.23
73952;BME280;62304;47.662;18.324;2023-04-30T05:28:25;100418.56;;;10.81;92.04
73952;BME280;62304;47.662;18.324;2023-04-30T05:31:28;100415.38;;;10.79;92.36
73952;BME280;62304;47.662;18.324;2023-04-30T05:34:33;100409.59;;;10.88;92.19
73952;BME280;62304;47.662;18.324;2023-04-30T05:37:37;100425.69;;;11.01;91.88
73952;BME280;62304;47.662;18.324;2023-04-30T05:40:40;100421.22;;;11.19;91.60
73952;BME280;62304;47.662;18.324;2023-04-30T05:43:43;100429.41;;;11.35;90.72
73952;BME280;62304;47.662;18.324;2023-04-30T05:46:46;100430.37;;;11.46;90.12
73952;BME280;62304;47.662;18.324;2023-04-30T05:49:49;100432.88;;;11.54;89.97
73952;BME280;62304;47.662;18.324;2023-04-30T05:52:52;100435.78;;;11.61;89.39
73952;BME280;62304;47.662;18.324;2023-04-30T05:55:55;100437.06;;;11.67;89.06
73952;BME280;62304;47.662;18.324;2023-04-30T05:58:58;100437.72;;;11.87;88.45
73952;BME280;62304;47.662;18.324;2023-04-30T06:02:01;100438.38;;;12.06;87.74
73952;BME280;62304;47.662;18.324;2023-04-30T06:05:06;100437.06;;;12.26;87.01
73952;BME280;62304;47.662;18.324;2023-04-30T06:08:09;100433.13;;;12.67;84.64
73952;BME280;62304;47.662;18.324;2023-04-30T06:11:13;100438.19;;;12.91;83.62
73952;BME280;62304;47.662;18.324;2023-04-30T06:14:17;100437.66;;;13.22;82.65
73952;BME280;62304;47.662;18.324;2023-04-30T06:17:20;100438.81;;;13.14;81.31
73952;BME280;62304;47.662;18.324;2023-04-30T06:20:23;100440.44;;;13.22;82.21
73952;BME280;62304;47.662;18.324;2023-04-30T06:23:26;100435.59;;;13.12;82.19
73952;BME280;62304;47.662;18.324;2023-04-30T06:26:29;100434.13;;;13.25;80.94
73952;BME280;62304;47.662;18.324;2023-04-30T06:29:32;100436.25;;;13.46;80.60
73952;BME280;62304;47.662;18.324;2023-04-30T06:32:35;100430.63;;;13.96;78.98
73952;BME280;62304;47.662;18.324;2023-04-30T06:35:38;100424.00;;;14.25;77.34
73952;BME280;62304;47.662;18.324;2023-04-30T06:38:41;100421.78;;;14.90;75.31
73952;BME280;62304;47.662;18.324;2023-04-30T06:41:45;100417.78;;;15.23;73.92
73952;BME280;62304;47.662;18.324;2023-04-30T06:44:49;100426.19;;;15.47;72.31
73952;BME280;62304;47.662;18.324;2023-04-30T06:47:52;100428.19;;;15.29;73.96
73952;BME280;62304;47.662;18.324;2023-04-30T06:50:55;100441.31;;;15.04;73.76
73952;BME280;62304;47.662;18.324;2023-04-30T06:53:58;100441.31;;;14.97;73.99
73952;BME280;62304;47.662;18.324;2023-04-30T06:57:02;100437.72;;;14.76;74.79
73952;BME280;62304;47.662;18.324;2023-04-30T07:00:06;100439.69;;;14.75;73.95
73952;BME280;62304;47.662;18.324;2023-04-30T07:03:08;100430.09;;;14.59;72.76
73952;BME280;62304;47.662;18.324;2023-04-30T07:06:12;100436.09;;;14.71;73.87
73952;BME280;62304;47.662;18.324;2023-04-30T07:09:15;100434.50;;;14.74;73.64
73952;BME280;62304;47.662;18.324;2023-04-30T07:12:19;100423.31;;;14.56;73.73
73952;BME280;62304;47.662;18.324;2023-04-30T07:15:22;100428.91;;;14.56;73.71
73952;BME280;62304;47.662;18.324;2023-04-30T07:18:25;100423.75;;;14.93;72.22
73952;BME280;62304;47.662;18.324;2023-04-30T07:21:28;100430.59;;;15.48;70.42
73952;BME280;62304;47.662;18.324;2023-04-30T07:24:31;100427.16;;;16.41;67.70
73952;BME280;62304;47.662;18.324;2023-04-30T07:27:34;100415.25;;;17.46;64.62
73952;BME280;62304;47.662;18.324;2023-04-30T07:30:37;100422.72;;;17.56;61.24
73952;BME280;62304;47.662;18.324;2023-04-30T07:33:40;100424.50;;;17.80;62.11
73952;BME280;62304;47.662;18.324;2023-04-30T07:36:44;100420.03;;;17.86;61.32
73952;BME280;62304;47.662;18.324;2023-04-30T07:39:46;100436.34;;;17.98;61.42
73952;BME280;62304;47.662;18.324;2023-04-30T07:42:50;100422.97;;;18.72;59.42
73952;BME280;62304;47.662;18.324;2023-04-30T07:45:52;100435.12;;;17.99;59.89
73952;BME280;62304;47.662;18.324;2023-04-30T07:48:57;100434.41;;;17.91;60.02
73952;BME280;62304;47.662;18.324;2023-04-30T07:52:00;100428.59;;;17.75;60.98
73952;BME280;62304;47.662;18.324;2023-04-30T07:55:03;100430.78;;;17.54;61.28
73952;BME280;62304;47.662;18.324;2023-04-30T07:58:06;100425.69;;;16.87;61.85
73952;BME280;62304;47.662;18.324;2023-04-30T08:01:10;100431.81;;;16.68;62.74
73952;BME280;62304;47.662;18.324;2023-04-30T08:04:13;100419.53;;;17.57;59.89
73952;BME280;62304;47.662;18.324;2023-04-30T08:07:16;100419.69;;;18.77;56.36
73952;BME280;62304;47.662;18.324;2023-04-30T08:10:19;100422.59;;;19.27;55.08
73952;BME280;62304;47.662;18.324;2023-04-30T08:13:22;100418.72;;;19.13;55.77
73952;BME280;62304;47.662;18.324;2023-04-30T08:16:25;100424.44;;;18.54;57.50
73952;BME280;62304;47.662;18.324;2023-04-30T08:19:28;100429.41;;;18.43;57.49
73952;BME280;62304;47.662;18.324;2023-04-30T08:22:31;100428.13;;;18.14;57.61
73952;BME280;62304;47.662;18.324;2023-04-30T08:25:34;100439.41;;;17.73;58.92
73952;BME280;62304;47.662;18.324;2023-04-30T08:28:37;100422.66;;;18.03;58.35
73952;BME280;62304;47.662;18.324;2023-04-30T08:31:40;100419.16;;;19.12;55.66
73952;BME280;62304;47.662;18.324;2023-04-30T08:34:43;100426.97;;;19.51;53.58
73952;BME280;62304;47.662;18.324;2023-04-30T08:37:47;100413.19;;;18.84;54.53
73952;BME280;62304;47.662;18.324;2023-04-30T08:41:01;100412.31;;;18.60;55.73
73952;BME280;62304;47.662;18.324;2023-04-30T08:44:06;100410.94;;;18.08;57.03
73952;BME280;62304;47.662;18.324;2023-04-30T08:47:10;100415.09;;;17.97;57.70
73952;BME280;62304;47.662;18.324;2023-04-30T08:50:16;100410.78;;;18.22;57.20
73952;BME280;62304;47.662;18.324;2023-04-30T08:53:20;100402.16;;;17.69;57.95
73952;BME280;62304;47.662;18.324;2023-04-30T08:56:24;100394.88;;;18.72;56.13
73952;BME280;62304;47.662;18.324;2023-04-30T08:59:27;100406.22;;;18.35;55.15
73952;BME280;62304;47.662;18.324;2023-04-30T09:02:31;100401.56;;;17.51;57.83
73952;BME280;62304;47.662;18.324;2023-04-30T09:05:36;100390.94;;;18.40;55.86
73952;BME280;62304;47.662;18.324;2023-04-30T09:08:47;100395.97;;;18.52;55.67
73952;BME280;62304;47.662;18.324;2023-04-30T09:11:51;100391.69;;;18.97;54.88
73952;BME280;62304;47.662;18.324;2023-04-30T09:14:58;100402.56;;;20.10;49.47
73952;BME280;62304;47.662;18.324;2023-04-30T09:18:20;100381.78;;;20.94;48.29
73952;BME280;62304;47.662;18.324;2023-04-30T09:24:46;100399.78;;;21.00;45.77
73952;BME280;62304;47.662;18.324;2023-04-30T09:28:06;100394.16;;;20.64;45.59
73952;BME280;62304;47.662;18.324;2023-04-30T09:31:18;100384.44;;;21.33;43.21
73952;BME280;62304;47.662;18.324;2023-04-30T09:34:32;100385.94;;;21.69;42.73
73952;BME280;62304;47.662;18.324;2023-04-30T09:37:36;100393.63;;;20.85;43.99
73952;BME280;62304;47.662;18.324;2023-04-30T09:40:41;100381.50;;;21.97;43.25
73952;BME280;62304;47.662;18.324;2023-04-30T09:43:44;100393.09;;;22.15;42.22
73952;BME280;62304;47.662;18.324;2023-04-30T09:46:49;100383.94;;;21.82;42.04
73952;BME280;62304;47.662;18.324;2023-04-30T09:49:53;100387.44;;;21.10;43.12
73952;BME280;62304;47.662;18.324;2023-04-30T09:53:05;100382.91;;;20.45;44.99
73952;BME280;62304;47.662;18.324;2023-04-30T09:56:11;100388.47;;;20.84;44.46
73952;BME280;62304;47.662;18.324;2023-04-30T09:59:18;100378.81;;;20.65;44.59
73952;BME280;62304;47.662;18.324;2023-04-30T10:02:23;100387.16;;;19.94;45.03
73952;BME280;62304;47.662;18.324;2023-04-30T10:05:27;100394.19;;;20.45;44.98
73952;BME280;62304;47.662;18.324;2023-04-30T10:08:33;100376.50;;;20.96;44.62
73952;BME280;62304;47.662;18.324;2023-04-30T10:11:38;100383.91;;;19.77;45.86
73952;BME280;62304;47.662;18.324;2023-04-30T10:14:49;100385.41;;;21.10;43.97
73952;BME280;62304;47.662;18.324;2023-04-30T10:18:01;100383.34;;;21.75;41.82
73952;BME280;62304;47.662;18.324;2023-04-30T10:21:08;100373.22;;;23.09;40.03
73952;BME280;62304;47.662;18.324;2023-04-30T10:24:16;100372.87;;;23.20;38.99
73952;BME280;62304;47.662;18.324;2023-04-30T10:27:20;100370.47;;;23.43;37.55
73952;BME280;62304;47.662;18.324;2023-04-30T10:30:24;100376.78;;;23.94;37.08
73952;BME280;62304;47.662;18.324;2023-04-30T10:33:36;100379.69;;;23.69;35.07
73952;BME280;62304;47.662;18.324;2023-04-30T10:36:47;100382.19;;;23.20;35.95
73952;BME280;62304;47.662;18.324;2023-04-30T10:39:51;100383.72;;;22.18;38.20
73952;BME280;62304;47.662;18.324;2023-04-30T10:42:57;100380.66;;;22.12;37.69
73952;BME280;62304;47.662;18.324;2023-04-30T10:46:01;100368.81;;;22.71;36.58
73952;BME280;62304;47.662;18.324;2023-04-30T10:49:04;100376.47;;;23.45;35.60
73952;BME280;62304;47.662;18.324;2023-04-30T10:52:09;100370.19;;;23.63;34.76
73952;BME280;62304;47.662;18.324;2023-04-30T10:55:16;100362.91;;;23.15;34.82
73952;BME280;62304;47.662;18.324;2023-04-30T11:01:26;100358.97;;;23.59;34.06
73952;BME280;62304;47.662;18.324;2023-04-30T11:04:30;100361.03;;;23.59;33.54
73952;BME280;62304;47.662;18.324;2023-04-30T11:07:33;100361.19;;;24.63;32.78
73952;BME280;62304;47.662;18.324;2023-04-30T11:10:36;100353.91;;;24.31;32.79
73952;BME280;62304;47.662;18.324;2023-04-30T11:13:59;100356.97;;;24.46;32.25
73952;BME280;62304;47.662;18.324;2023-04-30T11:17:03;100356.13;;;23.00;34.90
73952;BME280;62304;47.662;18.324;2023-04-30T11:20:07;100342.69;;;22.79;35.43
73952;BME280;62304;47.662;18.324;2023-04-30T11:23:14;100355.78;;;23.11;34.91
73952;BME280;62304;47.662;18.324;2023-04-30T11:27:02;100357.50;;;23.08;34.25
73952;BME280;62304;47.662;18.324;2023-04-30T11:30:13;100361.31;;;23.39;34.28
73952;BME280;62304;47.662;18.324;2023-04-30T11:33:17;100360.41;;;23.42;33.76
73952;BME280;62304;47.662;18.324;2023-04-30T11:36:21;100366.09;;;23.05;33.50
73952;BME280;62304;47.662;18.324;2023-04-30T11:39:25;100352.94;;;23.36;33.01
73952;BME280;62304;47.662;18.324;2023-04-30T11:42:30;100355.66;;;23.39;32.82
73952;BME280;62304;47.662;18.324;2023-04-30T11:45:38;100354.97;;;24.25;32.96
73952;BME280;62304;47.662;18.324;2023-04-30T11:48:43;100365.09;;;22.86;33.65
73952;BME280;62304;47.662;18.324;2023-04-30T11:51:49;100367.09;;;22.07;35.29
73952;BME280;62304;47.662;18.324;2023-04-30T11:54:54;100362.72;;;21.90;35.73
73952;BME280;62304;47.662;18.324;2023-04-30T11:57:57;100350.13;;;22.48;34.35
73952;BME280;62304;47.662;18.324;2023-04-30T12:01:01;100360.78;;;22.94;34.36
73952;BME280;62304;47.662;18.324;2023-04-30T12:04:04;100357.84;;;23.57;33.27
73952;BME280;62304;47.662;18.324;2023-04-30T12:07:07;100357.03;;;23.22;34.12
73952;BME280;62304;47.662;18.324;2023-04-30T12:10:12;100350.09;;;23.36;33.62
73952;BME280;62304;47.662;18.324;2023-04-30T12:13:15;100345.41;;;23.88;32.06
73952;BME280;62304;47.662;18.324;2023-04-30T12:16:19;100355.91;;;23.20;33.11
73952;BME280;62304;47.662;18.324;2023-04-30T12:19:22;100359.88;;;22.85;33.80
73952;BME280;62304;47.662;18.324;2023-04-30T12:22:29;100329.56;;;22.85;33.64
73952;BME280;62304;47.662;18.324;2023-04-30T12:25:41;100345.03;;;22.43;34.40
73952;BME280;62304;47.662;18.324;2023-04-30T12:28:46;100340.84;;;23.10;33.66
73952;BME280;62304;47.662;18.324;2023-04-30T12:31:50;100343.25;;;22.87;33.65
73952;BME280;62304;47.662;18.324;2023-04-30T12:34:57;100341.00;;;23.53;32.64
73952;BME280;62304;47.662;18.324;2023-04-30T12:38:03;100330.62;;;24.58;31.33
73952;BME280;62304;47.662;18.324;2023-04-30T12:41:10;100329.44;;;23.01;32.65
73952;BME280;62304;47.662;18.324;2023-04-30T12:44:21;100339.31;;;22.72;33.78
73952;BME280;62304;47.662;18.324;2023-04-30T12:47:25;100328.13;;;21.74;35.58
73952;BME280;62304;47.662;18.324;2023-04-30T12:50:28;100325.03;;;22.50;34.02
73952;BME280;62304;47.662;18.324;2023-04-30T12:53:32;100316.88;;;22.77;33.92
73952;BME280;62304;47.662;18.324;2023-04-30T12:56:34;100323.72;;;23.39;32.74
73952;BME280;62304;47.662;18.324;2023-04-30T13:02:51;100326.66;;;23.48;32.50
73952;BME280;62304;47.662;18.324;2023-04-30T13:05:55;100296.31;;;23.36;32.42
73952;BME280;62304;47.662;18.324;2023-04-30T13:09:03;100307.97;;;22.00;33.78
73952;BME280;62304;47.662;18.324;2023-04-30T13:12:07;100307.28;;;22.75;33.46
73952;BME280;62304;47.662;18.324;2023-04-30T13:15:11;100302.53;;;22.72;33.70
73952;BME280;62304;47.662;18.324;2023-04-30T13:18:15;100296.12;;;23.30;32.71
73952;BME280;62304;47.662;18.324;2023-04-30T13:21:19;100297.66;;;23.44;32.49
73952;BME280;62304;47.662;18.324;2023-04-30T13:24:24;100300.84;;;22.87;33.71
73952;BME280;62304;47.662;18.324;2023-04-30T13:27:30;100300.78;;;22.37;33.90
73952;BME280;62304;47.662;18.324;2023-04-30T13:30:35;100288.94;;;22.29;33.97
73952;BME280;62304;47.662;18.324;2023-04-30T13:33:39;100298.91;;;22.71;33.54
73952;BME280;62304;47.662;18.324;2023-04-30T13:36:44;100304.87;;;22.36;34.09
73952;BME280;62304;47.662;18.324;2023-04-30T13:39:49;100293.12;;;22.37;33.25
73952;BME280;62304;47.662;18.324;2023-04-30T13:42:53;100289.97;;;22.35;34.05
73952;BME280;62304;47.662;18.324;2023-04-30T13:45:56;100305.19;;;22.13;33.31
73952;BME280;62304;47.662;18.324;2023-04-30T13:49:07;100300.81;;;21.83;34.48
73952;BME280;62304;47.662;18.324;2023-04-30T13:52:10;100295.56;;;22.10;33.47
73952;BME280;62304;47.662;18.324;2023-04-30T13:55:14;100297.72;;;22.19;33.61
73952;BME280;62304;47.662;18.324;2023-04-30T13:58:17;100298.78;;;21.84;34.35
73952;BME280;62304;47.662;18.324;2023-04-30T14:01:21;100300.78;;;22.12;34.51
73952;BME280;62304;47.662;18.324;2023-04-30T14:04:24;100305.81;;;22.58;34.13
73952;BME280;62304;47.662;18.324;2023-04-30T14:07:27;100294.66;;;22.01;34.25
73952;BME280;62304;47.662;18.324;2023-04-30T14:10:31;100296.78;;;21.97;34.62
73952;BME280;62304;47.662;18.324;2023-04-30T14:13:34;100292.06;;;21.49;34.68
73952;BME280;62304;47.662;18.324;2023-04-30T14:16:37;100283.09;;;21.38;35.06
73952;BME280;62304;47.662;18.324;2023-04-30T14:19:41;100292.44;;;21.07;36.18
73952;BME280;62304;47.662;18.324;2023-04-30T14:22:44;100283.22;;;21.35;35.89
73952;BME280;62304;47.662;18.324;2023-04-30T14:25:47;100280.09;;;21.01;36.45
73952;BME280;62304;47.662;18.324;2023-04-30T14:28:53;100284.69;;;21.11;35.97
73952;BME280;62304;47.662;18.324;2023-04-30T14:31:55;100288.19;;;21.15;36.16
73952;BME280;62304;47.662;18.324;2023-04-30T14:35:00;100281.03;;;20.78;37.02
73952;BME280;62304;47.662;18.324;2023-04-30T14:38:05;100293.19;;;20.59;37.22
73952;BME280;62304;47.662;18.324;2023-04-30T14:41:08;100285.50;;;20.08;37.87
73952;BME280;62304;47.662;18.324;2023-04-30T14:44:11;100290.72;;;19.90;38.67
73952;BME280;62304;47.662;18.324;2023-04-30T14:47:15;100293.75;;;19.80;38.79
73952;BME280;62304;47.662;18.324;2023-04-30T14:50:17;100301.19;;;19.90;39.01
73952;BME280;62304;47.662;18.324;2023-04-30T14:53:20;100297.78;;;19.98;38.80
73952;BME280;62304;47.662;18.324;2023-04-30T14:56:24;100305.72;;;19.64;39.06
73952;BME280;62304;47.662;18.324;2023-04-30T14:59:28;100305.84;;;19.38;39.34
73952;BME280;62304;47.662;18.324;2023-04-30T15:02:31;100306.94;;;19.44;39.34
73952;BME280;62304;47.662;18.324;2023-04-30T15:05:34;100306.06;;;19.47;39.42
73952;BME280;62304;47.662;18.324;2023-04-30T15:08:37;100309.47;;;19.58;39.25
73952;BME280;62304;47.662;18.324;2023-04-30T15:11:40;100309.53;;;19.35;39.66
73952;BME280;62304;47.662;18.324;2023-04-30T15:14:43;100312.84;;;19.30;39.90
73952;BME280;62304;47.662;18.324;2023-04-30T15:17:46;100316.97;;;19.22;39.95
73952;BME280;62304;47.662;18.324;2023-04-30T15:20:50;100315.66;;;19.03;40.51
73952;BME280;62304;47.662;18.324;2023-04-30T15:23:53;100315.06;;;18.92;41.34
73952;BME280;62304;47.662;18.324;2023-04-30T15:26:55;100318.53;;;18.77;41.39
73952;BME280;62304;47.662;18.324;2023-04-30T15:29:59;100315.25;;;18.82;41.48
73952;BME280;62304;47.662;18.324;2023-04-30T15:33:02;100327.69;;;18.58;41.75
73952;BME280;62304;47.662;18.324;2023-04-30T15:36:05;100326.03;;;18.61;41.67
73952;BME280;62304;47.662;18.324;2023-04-30T15:39:08;100333.25;;;18.62;42.13
73952;BME280;62304;47.662;18.324;2023-04-30T15:42:12;100319.41;;;18.48;42.16
73952;BME280;62304;47.662;18.324;2023-04-30T15:45:15;100327.06;;;18.44;42.39
73952;BME280;62304;47.662;18.324;2023-04-30T15:48:20;100331.16;;;18.39;42.50
73952;BME280;62304;47.662;18.324;2023-04-30T15:51:24;100330.47;;;18.32;42.56
73952;BME280;62304;47.662;18.324;2023-04-30T15:54:28;100319.34;;;18.21;42.58
73952;BME280;62304;47.662;18.324;2023-04-30T15:57:32;100329.06;;;18.13;42.77
73952;BME280;62304;47.662;18.324;2023-04-30T16:00:36;100332.53;;;17.94;43.44
73952;BME280;62304;47.662;18.324;2023-04-30T16:03:41;100326.06;;;17.97;43.27
73952;BME280;62304;47.662;18.324;2023-04-30T16:06:45;100339.94;;;17.81;43.32
73952;BME280;62304;47.662;18.324;2023-04-30T16:09:49;100328.03;;;17.70;43.24
73952;BME280;62304;47.662;18.324;2023-04-30T16:12:54;100325.97;;;17.74;43.21
73952;BME280;62304;47.662;18.324;2023-04-30T16:15:58;100330.94;;;17.60;43.83
73952;BME280;62304;47.662;18.324;2023-04-30T16:19:02;100329.50;;;17.48;44.00